SCVM 241500Z 34003KT CAVOK 15/06 Q1018